sensor_id;sensor_type;location;lat;lon;timestamp;pressure;altitude;pressure_sealevel;temperature;humidity
28267;BME280;15525;45.568;5.448;2023-03-01T00:01:58;98416.00;;;6.38;49.32
28267;BME280;15525;45.568;5.448;2023-03-01T00:04:24;98423.84;;;6.45;49.30
28267;BME280;15525;45.568;5.448;2023-03-01T00:06:49;98422.19;;;5.63;50.87
28267;BME280;15525;45.568;5.448;2023-03-01T00:09:15;98435.97;;;5.42;51.64
28267;BME280;15525;45.568;5.448;2023-03-01T00:11:41;98418.06;;;5.38;51.42
28267;BME280;15525;45.568;5.448;2023-03-01T00:14:07;98413.63;;;5.73;50.59
28267;BME280;15525;45.568;5.448;2023-03-01T00:16:34;98428.78;;;5.72;50.84
28267;BME280;15525;45.568;5.448;2023-03-01T00:19:00;98439.38;;;5.61;51.02
28267;BME280;15525;45.568;5.448;2023-03-01T00:21:26;98436.38;;;5.69;50.79
28267;BME280;15525;45.568;5.448;2023-03-01T00:23:52;98415.53;;;5.43;51.30
28267;BME280;15525;45.568;5.448;2023-03-01T00:26:19;98438.25;;;5.80;50.64
28267;BME280;15525;45.568;5.448;2023-03-01T00:28:45;98425.38;;;5.54;51.24
28267;BME280;15525;45.568;5.448;2023-03-01T00:31:16;98427.69;;;5.50;51.04
28267;BME280;15525;45.568;5.448;2023-03-01T00:33:42;98428.28;;;5.23;51.46
28267;BME280;15525;45.568;5.448;2023-03-01T00:36:08;98426.41;;;5.53;51.19
28267;BME280;15525;45.568;5.448;2023-03-01T00:38:38;98414.25;;;5.34;51.71
28267;BME280;15525;45.568;5.448;2023-03-01T00:41:08;98409.53;;;5.47;51.15
28267;BME280;15525;45.568;5.448;2023-03-01T00:43:35;98407.47;;;5.38;51.22
28267;BME280;15525;45.568;5.448;2023-03-01T00:46:12;98395.81;;;5.09;51.77
28267;BME280;15525;45.568;5.448;2023-03-01T00:48:39;98408.88;;;5.52;50.90
28267;BME280;15525;45.568;5.448;2023-03-01T00:51:13;98410.16;;;5.61;51.23
28267;BME280;15525;45.568;5.448;2023-03-01T00:53:39;98380.53;;;5.34;51.15
28267;BME280;15525;45.568;5.448;2023-03-01T00:56:06;98396.03;;;5.37;50.90
28267;BME280;15525;45.568;5.448;2023-03-01T00:58:32;98407.38;;;5.56;50.90
28267;BME280;15525;45.568;5.448;2023-03-01T01:00:58;98403.88;;;5.32;51.40
28267;BME280;15525;45.568;5.448;2023-03-01T01:03:24;98405.50;;;5.45;51.12
28267;BME280;15525;45.568;5.448;2023-03-01T01:05:52;98391.91;;;5.53;50.62
28267;BME280;15525;45.568;5.448;2023-03-01T01:08:19;98392.72;;;5.65;50.36
28267;BME280;15525;45.568;5.448;2023-03-01T01:10:45;98395.56;;;5.93;50.10
28267;BME280;15525;45.568;5.448;2023-03-01T01:13:11;98381.34;;;5.99;49.86
28267;BME280;15525;45.568;5.448;2023-03-01T01:15:38;98384.16;;;5.51;50.57
28267;BME280;15525;45.568;5.448;2023-03-01T01:18:04;98391.47;;;5.15;51.77
28267;BME280;15525;45.568;5.448;2023-03-01T01:20:30;98401.22;;;5.03;52.04
28267;BME280;15525;45.568;5.448;2023-03-01T01:22:55;98388.00;;;4.85;52.48
28267;BME280;15525;45.568;5.448;2023-03-01T01:25:21;98372.09;;;4.85;52.19
28267;BME280;15525;45.568;5.448;2023-03-01T01:27:46;98387.47;;;4.94;52.20
28267;BME280;15525;45.568;5.448;2023-03-01T01:30:12;98392.19;;;5.22;51.55
28267;BME280;15525;45.568;5.448;2023-03-01T01:32:38;98386.59;;;5.12;51.58
28267;BME280;15525;45.568;5.448;2023-03-01T01:35:03;98379.56;;;5.06;51.93
28267;BME280;15525;45.568;5.448;2023-03-01T01:37:29;98392.56;;;5.37;51.02
28267;BME280;15525;45.568;5.448;2023-03-01T01:40:00;98385.09;;;5.57;50.83
28267;BME280;15525;45.568;5.448;2023-03-01T01:42:27;98385.59;;;5.77;50.30
28267;BME280;15525;45.568;5.448;2023-03-01T01:45:28;98380.00;;;5.44;51.34
28267;BME280;15525;45.568;5.448;2023-03-01T01:47:57;98374.38;;;5.63;50.58
28267;BME280;15525;45.568;5.448;2023-03-01T01:50:25;98363.66;;;5.58;50.65
28267;BME280;15525;45.568;5.448;2023-03-01T01:52:53;98370.34;;;5.61;50.69
28267;BME280;15525;45.568;5.448;2023-03-01T01:55:21;98365.38;;;5.53;50.64
28267;BME280;15525;45.568;5.448;2023-03-01T01:57:52;98343.97;;;5.25;51.32
28267;BME280;15525;45.568;5.448;2023-03-01T02:00:29;98353.75;;;5.24;51.37
28267;BME280;15525;45.568;5.448;2023-03-01T02:02:57;98367.00;;;5.13;51.46
28267;BME280;15525;45.568;5.448;2023-03-01T02:07:53;98368.13;;;5.46;50.57
28267;BME280;15525;45.568;5.448;2023-03-01T02:10:21;98364.63;;;5.34;50.91
28267;BME280;15525;45.568;5.448;2023-03-01T02:12:48;98344.44;;;4.92;51.71
28267;BME280;15525;45.568;5.448;2023-03-01T02:15:14;98349.00;;;4.74;52.36
28267;BME280;15525;45.568;5.448;2023-03-01T02:17:41;98349.13;;;4.79;51.98
28267;BME280;15525;45.568;5.448;2023-03-01T02:20:22;98344.00;;;4.95;52.10
28267;BME280;15525;45.568;5.448;2023-03-01T02:22:51;98350.69;;;4.98;51.96
28267;BME280;15525;45.568;5.448;2023-03-01T02:25:36;98345.63;;;4.96;52.04
28267;BME280;15525;45.568;5.448;2023-03-01T02:30:47;98331.28;;;4.86;52.02
28267;BME280;15525;45.568;5.448;2023-03-01T02:33:34;98323.06;;;4.46;52.42
28267;BME280;15525;45.568;5.448;2023-03-01T02:36:05;98318.78;;;4.45;52.64
28267;BME280;15525;45.568;5.448;2023-03-01T02:38:32;98317.53;;;4.48;52.62
28267;BME280;15525;45.568;5.448;2023-03-01T02:40:57;98325.16;;;4.74;51.98
28267;BME280;15525;45.568;5.448;2023-03-01T02:43:28;98311.50;;;5.11;51.36
28267;BME280;15525;45.568;5.448;2023-03-01T02:46:02;98306.13;;;4.77;51.87
28267;BME280;15525;45.568;5.448;2023-03-01T02:48:48;98309.00;;;4.75;52.48
28267;BME280;15525;45.568;5.448;2023-03-01T02:56:45;98279.91;;;4.69;51.56
28267;BME280;15525;45.568;5.448;2023-03-01T02:59:15;98302.63;;;4.65;51.95
28267;BME280;15525;45.568;5.448;2023-03-01T03:01:41;98279.56;;;4.36;52.67
28267;BME280;15525;45.568;5.448;2023-03-01T03:04:10;98279.41;;;4.90;51.78
28267;BME280;15525;45.568;5.448;2023-03-01T03:06:36;98289.50;;;5.11;50.88
28267;BME280;15525;45.568;5.448;2023-03-01T03:09:03;98290.25;;;4.59;51.99
28267;BME280;15525;45.568;5.448;2023-03-01T03:11:29;98290.94;;;4.25;52.88
28267;BME280;15525;45.568;5.448;2023-03-01T03:13:56;98300.31;;;4.39;52.58
28267;BME280;15525;45.568;5.448;2023-03-01T03:16:21;98287.13;;;4.50;52.40
28267;BME280;15525;45.568;5.448;2023-03-01T03:18:47;98257.75;;;4.52;52.01
28267;BME280;15525;45.568;5.448;2023-03-01T03:21:14;98287.38;;;4.60;52.09
28267;BME280;15525;45.568;5.448;2023-03-01T03:23:39;98258.38;;;4.36;52.26
28267;BME280;15525;45.568;5.448;2023-03-01T03:26:05;98270.97;;;4.70;51.91
28267;BME280;15525;45.568;5.448;2023-03-01T03:28:32;98273.97;;;4.44;52.15
28267;BME280;15525;45.568;5.448;2023-03-01T03:30:59;98268.66;;;4.44;52.29
28267;BME280;15525;45.568;5.448;2023-03-01T03:33:29;98262.31;;;4.15;53.19
28267;BME280;15525;45.568;5.448;2023-03-01T03:35:55;98259.34;;;4.23;52.84
28267;BME280;15525;45.568;5.448;2023-03-01T03:38:20;98275.78;;;4.43;52.25
28267;BME280;15525;45.568;5.448;2023-03-01T03:40:52;98270.31;;;4.56;52.59
28267;BME280;15525;45.568;5.448;2023-03-01T03:43:20;98272.22;;;4.38;52.56
28267;BME280;15525;45.568;5.448;2023-03-01T03:45:47;98270.75;;;4.71;52.20
28267;BME280;15525;45.568;5.448;2023-03-01T03:48:13;98275.91;;;4.78;51.90
28267;BME280;15525;45.568;5.448;2023-03-01T03:50:40;98275.06;;;4.95;51.50
28267;BME280;15525;45.568;5.448;2023-03-01T03:53:11;98266.44;;;4.41;52.33
28267;BME280;15525;45.568;5.448;2023-03-01T03:55:37;98255.19;;;3.98;53.51
28267;BME280;15525;45.568;5.448;2023-03-01T03:58:05;98257.41;;;4.01;53.08
28267;BME280;15525;45.568;5.448;2023-03-01T04:00:37;98273.72;;;4.16;53.21
28267;BME280;15525;45.568;5.448;2023-03-01T04:03:03;98277.06;;;4.41;52.65
28267;BME280;15525;45.568;5.448;2023-03-01T04:05:29;98279.84;;;4.46;52.65
28267;BME280;15525;45.568;5.448;2023-03-01T04:07:55;98271.31;;;4.44;52.31
28267;BME280;15525;45.568;5.448;2023-03-01T04:10:29;98265.78;;;4.45;52.44
28267;BME280;15525;45.568;5.448;2023-03-01T04:12:55;98231.34;;;4.16;52.63
28267;BME280;15525;45.568;5.448;2023-03-01T04:15:24;98268.19;;;4.65;52.03
28267;BME280;15525;45.568;5.448;2023-03-01T04:17:54;98262.94;;;4.88;51.42
28267;BME280;15525;45.568;5.448;2023-03-01T04:20:26;98273.72;;;4.75;52.01
28267;BME280;15525;45.568;5.448;2023-03-01T04:25:24;98240.50;;;4.61;51.72
28267;BME280;15525;45.568;5.448;2023-03-01T04:27:49;98252.25;;;4.53;52.00
28267;BME280;15525;45.568;5.448;2023-03-01T04:30:15;98248.31;;;4.56;51.97
28267;BME280;15525;45.568;5.448;2023-03-01T04:32:40;98257.50;;;4.42;52.48
28267;BME280;15525;45.568;5.448;2023-03-01T04:35:06;98261.13;;;4.11;52.91
28267;BME280;15525;45.568;5.448;2023-03-01T04:37:32;98252.81;;;4.26;53.13
28267;BME280;15525;45.568;5.448;2023-03-01T04:39:57;98252.47;;;4.52;52.30
28267;BME280;15525;45.568;5.448;2023-03-01T04:42:23;98256.84;;;4.58;52.11
28267;BME280;15525;45.568;5.448;2023-03-01T04:44:48;98264.31;;;4.49;52.35
28267;BME280;15525;45.568;5.448;2023-03-01T04:47:16;98255.78;;;4.47;52.13
28267;BME280;15525;45.568;5.448;2023-03-01T04:49:42;98257.63;;;4.47;52.25
28267;BME280;15525;45.568;5.448;2023-03-01T04:52:07;98254.25;;;4.40;52.66
28267;BME280;15525;45.568;5.448;2023-03-01T04:54:35;98252.94;;;4.60;52.09
28267;BME280;15525;45.568;5.448;2023-03-01T04:57:01;98242.13;;;4.32;52.25
28267;BME280;15525;45.568;5.448;2023-03-01T04:59:27;98223.72;;;3.90;53.47
28267;BME280;15525;45.568;5.448;2023-03-01T05:01:54;98249.25;;;4.32;52.92
28267;BME280;15525;45.568;5.448;2023-03-01T05:04:23;98238.53;;;4.27;52.49
28267;BME280;15525;45.568;5.448;2023-03-01T05:06:49;98249.06;;;4.15;52.91
28267;BME280;15525;45.568;5.448;2023-03-01T05:09:15;98251.56;;;4.10;53.16
28267;BME280;15525;45.568;5.448;2023-03-01T05:11:41;98253.13;;;3.82;53.82
28267;BME280;15525;45.568;5.448;2023-03-01T05:14:07;98250.66;;;3.69;54.08
28267;BME280;15525;45.568;5.448;2023-03-01T05:16:33;98245.50;;;4.10;53.34
28267;BME280;15525;45.568;5.448;2023-03-01T05:18:59;98233.84;;;4.11;52.97
28267;BME280;15525;45.568;5.448;2023-03-01T05:21:25;98246.28;;;4.10;53.09
28267;BME280;15525;45.568;5.448;2023-03-01T05:23:51;98238.66;;;4.32;52.58
28267;BME280;15525;45.568;5.448;2023-03-01T05:26:19;98250.28;;;4.31;52.53
28267;BME280;15525;45.568;5.448;2023-03-01T05:28:47;98224.88;;;4.12;52.47
28267;BME280;15525;45.568;5.448;2023-03-01T05:31:13;98224.34;;;4.21;52.67
28267;BME280;15525;45.568;5.448;2023-03-01T05:33:40;98239.59;;;4.08;53.07
28267;BME280;15525;45.568;5.448;2023-03-01T05:36:07;98243.53;;;4.17;52.82
28267;BME280;15525;45.568;5.448;2023-03-01T05:38:33;98239.88;;;4.18;52.82
28267;BME280;15525;45.568;5.448;2023-03-01T05:40:59;98234.13;;;4.21;52.73
28267;BME280;15525;45.568;5.448;2023-03-01T05:43:24;98245.41;;;4.16;52.57
28267;BME280;15525;45.568;5.448;2023-03-01T05:45:50;98247.91;;;4.41;52.24
28267;BME280;15525;45.568;5.448;2023-03-01T05:48:16;98245.13;;;4.36;52.28
28267;BME280;15525;45.568;5.448;2023-03-01T05:50:43;98243.50;;;4.35;52.34
28267;BME280;15525;45.568;5.448;2023-03-01T05:53:17;98247.34;;;4.39;52.15
28267;BME280;15525;45.568;5.448;2023-03-01T05:55:44;98246.25;;;4.28;52.39
28267;BME280;15525;45.568;5.448;2023-03-01T05:58:15;98230.28;;;4.35;52.27
28267;BME280;15525;45.568;5.448;2023-03-01T06:00:42;98238.78;;;4.37;52.08
28267;BME280;15525;45.568;5.448;2023-03-01T06:03:11;98235.13;;;4.38;52.16
28267;BME280;15525;45.568;5.448;2023-03-01T06:05:37;98237.25;;;4.29;52.10
28267;BME280;15525;45.568;5.448;2023-03-01T06:08:04;98232.84;;;3.76;53.58
28267;BME280;15525;45.568;5.448;2023-03-01T06:10:30;98234.38;;;4.01;52.92
28267;BME280;15525;45.568;5.448;2023-03-01T06:12:56;98241.59;;;4.12;52.66
28267;BME280;15525;45.568;5.448;2023-03-01T06:15:22;98237.53;;;4.10;52.74
28267;BME280;15525;45.568;5.448;2023-03-01T06:17:48;98238.41;;;4.04;52.92
28267;BME280;15525;45.568;5.448;2023-03-01T06:20:18;98231.34;;;4.16;52.99
28267;BME280;15525;45.568;5.448;2023-03-01T06:22:44;98233.09;;;4.22;52.35
28267;BME280;15525;45.568;5.448;2023-03-01T06:25:11;98242.59;;;4.11;52.59
28267;BME280;15525;45.568;5.448;2023-03-01T06:27:37;98243.81;;;4.27;52.36
28267;BME280;15525;45.568;5.448;2023-03-01T06:30:03;98241.38;;;3.96;53.22
28267;BME280;15525;45.568;5.448;2023-03-01T06:32:29;98245.97;;;4.18;52.57
28267;BME280;15525;45.568;5.448;2023-03-01T06:34:56;98244.09;;;4.37;52.03
28267;BME280;15525;45.568;5.448;2023-03-01T06:37:21;98238.38;;;4.51;51.89
28267;BME280;15525;45.568;5.448;2023-03-01T06:39:47;98248.03;;;4.46;51.98
28267;BME280;15525;45.568;5.448;2023-03-01T06:42:12;98244.81;;;4.44;51.88
28267;BME280;15525;45.568;5.448;2023-03-01T06:44:38;98242.84;;;4.39;51.97
28267;BME280;15525;45.568;5.448;2023-03-01T06:47:03;98244.22;;;4.12;52.66
28267;BME280;15525;45.568;5.448;2023-03-01T06:49:29;98243.00;;;3.97;52.98
28267;BME280;15525;45.568;5.448;2023-03-01T06:51:55;98240.94;;;4.28;52.50
28267;BME280;15525;45.568;5.448;2023-03-01T06:54:21;98251.53;;;4.58;51.80
28267;BME280;15525;45.568;5.448;2023-03-01T06:56:48;98247.47;;;4.85;51.05
28267;BME280;15525;45.568;5.448;2023-03-01T06:59:14;98256.84;;;4.99;50.96
28267;BME280;15525;45.568;5.448;2023-03-01T07:01:39;98240.34;;;4.85;50.80
28267;BME280;15525;45.568;5.448;2023-03-01T07:04:05;98262.56;;;4.84;51.23
28267;BME280;15525;45.568;5.448;2023-03-01T07:06:30;98264.66;;;4.82;51.04
28267;BME280;15525;45.568;5.448;2023-03-01T07:08:56;98258.56;;;4.52;52.04
28267;BME280;15525;45.568;5.448;2023-03-01T07:11:21;98243.25;;;4.25;52.26
28267;BME280;15525;45.568;5.448;2023-03-01T07:13:47;98260.81;;;4.37;52.06
28267;BME280;15525;45.568;5.448;2023-03-01T07:16:13;98258.03;;;4.14;52.32
28267;BME280;15525;45.568;5.448;2023-03-01T07:18:39;98238.31;;;4.28;52.27
28267;BME280;15525;45.568;5.448;2023-03-01T07:21:07;98236.53;;;3.93;53.21
28267;BME280;15525;45.568;5.448;2023-03-01T07:23:33;98248.72;;;4.12;52.99
28267;BME280;15525;45.568;5.448;2023-03-01T07:25:58;98248.28;;;3.97;52.88
28267;BME280;15525;45.568;5.448;2023-03-01T07:28:24;98233.03;;;4.10;52.35
28267;BME280;15525;45.568;5.448;2023-03-01T07:30:49;98253.28;;;4.64;51.88
28267;BME280;15525;45.568;5.448;2023-03-01T07:33:15;98230.19;;;4.41;52.02
28267;BME280;15525;45.568;5.448;2023-03-01T07:35:40;98244.66;;;4.68;51.60
28267;BME280;15525;45.568;5.448;2023-03-01T07:38:06;98257.00;;;4.15;52.50
28267;BME280;15525;45.568;5.448;2023-03-01T07:40:31;98233.09;;;4.22;52.55
28267;BME280;15525;45.568;5.448;2023-03-01T07:42:57;98245.16;;;4.47;51.79
28267;BME280;15525;45.568;5.448;2023-03-01T07:45:26;98239.00;;;4.24;52.47
28267;BME280;15525;45.568;5.448;2023-03-01T07:47:52;98242.09;;;4.03;52.63
28267;BME280;15525;45.568;5.448;2023-03-01T07:50:18;98234.09;;;3.55;54.13
28267;BME280;15525;45.568;5.448;2023-03-01T07:52:48;98245.78;;;3.48;54.61
28267;BME280;15525;45.568;5.448;2023-03-01T07:55:15;98244.53;;;3.50;54.02
28267;BME280;15525;45.568;5.448;2023-03-01T07:57:40;98230.34;;;3.45;54.03
28267;BME280;15525;45.568;5.448;2023-03-01T08:00:07;98250.03;;;4.03;53.43
28267;BME280;15525;45.568;5.448;2023-03-01T08:02:32;98243.91;;;4.20;52.81
28267;BME280;15525;45.568;5.448;2023-03-01T08:04:58;98241.38;;;4.25;52.33
28267;BME280;15525;45.568;5.448;2023-03-01T08:07:23;98245.56;;;4.03;52.82
28267;BME280;15525;45.568;5.448;2023-03-01T08:09:49;98227.69;;;3.63;53.54
28267;BME280;15525;45.568;5.448;2023-03-01T08:12:14;98247.81;;;4.00;53.26
28267;BME280;15525;45.568;5.448;2023-03-01T08:14:42;98255.69;;;4.06;53.14
28267;BME280;15525;45.568;5.448;2023-03-01T08:17:07;98242.88;;;3.74;53.75
28267;BME280;15525;45.568;5.448;2023-03-01T08:19:33;98244.47;;;3.93;53.60
28267;BME280;15525;45.568;5.448;2023-03-01T08:22:01;98237.84;;;4.02;53.09
28267;BME280;15525;45.568;5.448;2023-03-01T08:24:26;98227.84;;;3.68;53.85
28267;BME280;15525;45.568;5.448;2023-03-01T08:26:52;98236.53;;;3.57;54.29
28267;BME280;15525;45.568;5.448;2023-03-01T08:29:17;98223.97;;;3.52;54.10
28267;BME280;15525;45.568;5.448;2023-03-01T08:31:43;98213.88;;;3.43;54.16
28267;BME280;15525;45.568;5.448;2023-03-01T08:34:11;98225.88;;;3.63;54.11
28267;BME280;15525;45.568;5.448;2023-03-01T08:36:42;98229.97;;;3.77;53.81
28267;BME280;15525;45.568;5.448;2023-03-01T08:39:09;98219.59;;;3.40;54.15
28267;BME280;15525;45.568;5.448;2023-03-01T08:41:35;98234.28;;;4.08;53.08
28267;BME280;15525;45.568;5.448;2023-03-01T08:44:01;98239.75;;;4.42;52.61
28267;BME280;15525;45.568;5.448;2023-03-01T08:46:29;98228.84;;;4.21;52.75
28267;BME280;15525;45.568;5.448;2023-03-01T08:48:54;98229.84;;;4.38;52.58
28267;BME280;15525;45.568;5.448;2023-03-01T08:51:21;98222.16;;;4.00;52.71
28267;BME280;15525;45.568;5.448;2023-03-01T08:53:47;98235.22;;;3.84;53.29
28267;BME280;15525;45.568;5.448;2023-03-01T08:56:14;98235.06;;;3.79;53.86
28267;BME280;15525;45.568;5.448;2023-03-01T08:58:39;98251.38;;;3.76;53.64
28267;BME280;15525;45.568;5.448;2023-03-01T09:01:12;98243.13;;;4.02;53.60
28267;BME280;15525;45.568;5.448;2023-03-01T09:03:38;98232.16;;;4.16;53.03
28267;BME280;15525;45.568;5.448;2023-03-01T09:06:05;98234.22;;;4.44;52.75
28267;BME280;15525;45.568;5.448;2023-03-01T09:08:35;98239.03;;;3.88;53.46
28267;BME280;15525;45.568;5.448;2023-03-01T09:11:02;98237.34;;;3.75;54.08
28267;BME280;15525;45.568;5.448;2023-03-01T09:13:28;98239.91;;;3.82;53.82
28267;BME280;15525;45.568;5.448;2023-03-01T09:16:00;98231.56;;;4.14;53.28
28267;BME280;15525;45.568;5.448;2023-03-01T09:18:25;98227.00;;;4.21;52.78
28267;BME280;15525;45.568;5.448;2023-03-01T09:20:51;98220.03;;;4.38;52.52
28267;BME280;15525;45.568;5.448;2023-03-01T09:23:16;98218.47;;;4.60;52.01
28267;BME280;15525;45.568;5.448;2023-03-01T09:25:41;98230.59;;;4.68;51.63
28267;BME280;15525;45.568;5.448;2023-03-01T09:28:07;98208.66;;;4.90;51.59
28267;BME280;15525;45.568;5.448;2023-03-01T09:30:32;98217.66;;;5.12;50.97
28267;BME280;15525;45.568;5.448;2023-03-01T09:32:58;98223.84;;;4.95;51.39
28267;BME280;15525;45.568;5.448;2023-03-01T09:35:23;98213.94;;;4.90;51.21
28267;BME280;15525;45.568;5.448;2023-03-01T09:37:49;98223.19;;;4.47;52.21
28267;BME280;15525;45.568;5.448;2023-03-01T09:40:20;98216.53;;;4.56;52.13
28267;BME280;15525;45.568;5.448;2023-03-01T09:43:50;98215.28;;;4.70;51.82
28267;BME280;15525;45.568;5.448;2023-03-01T09:45:45;98217.34;;;4.68;51.88
28267;BME280;15525;45.568;5.448;2023-03-01T09:48:16;98223.19;;;4.47;52.29
28267;BME280;15525;45.568;5.448;2023-03-01T09:50:44;98221.53;;;4.46;52.71
28267;BME280;15525;45.568;5.448;2023-03-01T09:53:17;98208.22;;;4.64;52.12
28267;BME280;15525;45.568;5.448;2023-03-01T09:55:46;98214.19;;;5.12;51.19
28267;BME280;15525;45.568;5.448;2023-03-01T10:06:30;98199.41;;;5.62;50.38
28267;BME280;15525;45.568;5.448;2023-03-01T10:09:00;98214.41;;;5.33;50.69
28267;BME280;15525;45.568;5.448;2023-03-01T10:11:37;98219.88;;;4.63;52.38
28267;BME280;15525;45.568;5.448;2023-03-01T10:16:48;98192.56;;;4.51;52.32
28267;BME280;15525;45.568;5.448;2023-03-01T10:19:24;98202.69;;;4.54;52.81
28267;BME280;15525;45.568;5.448;2023-03-01T10:21:53;98201.78;;;4.60;52.09
28267;BME280;15525;45.568;5.448;2023-03-01T10:24:19;98197.34;;;5.18;51.28
28267;BME280;15525;45.568;5.448;2023-03-01T10:26:47;98201.03;;;5.17;50.69
28267;BME280;15525;45.568;5.448;2023-03-01T10:29:14;98186.97;;;5.16;50.83
28267;BME280;15525;45.568;5.448;2023-03-01T10:31:46;98193.97;;;5.57;50.22
28267;BME280;15525;45.568;5.448;2023-03-01T10:36:39;98202.50;;;5.59;50.10
28267;BME280;15525;45.568;5.448;2023-03-01T10:39:13;98190.09;;;5.25;51.11
28267;BME280;15525;45.568;5.448;2023-03-01T10:41:53;98178.41;;;5.49;50.40
28267;BME280;15525;45.568;5.448;2023-03-01T10:44:43;98178.88;;;6.08;49.62
28267;BME280;15525;45.568;5.448;2023-03-01T10:47:20;98196.69;;;5.96;49.35
28267;BME280;15525;45.568;5.448;2023-03-01T10:50:04;98181.25;;;5.82;49.89
28267;BME280;15525;45.568;5.448;2023-03-01T10:52:36;98183.81;;;6.33;49.42
28267;BME280;15525;45.568;5.448;2023-03-01T10:55:27;98179.19;;;6.12;49.21
28267;BME280;15525;45.568;5.448;2023-03-01T10:58:19;98178.38;;;6.39;49.03
28267;BME280;15525;45.568;5.448;2023-03-01T11:00:48;98164.84;;;6.57;48.52
28267;BME280;15525;45.568;5.448;2023-03-01T11:03:18;98166.41;;;6.70;48.49
28267;BME280;15525;45.568;5.448;2023-03-01T11:05:59;98155.03;;;6.58;48.09
28267;BME280;15525;45.568;5.448;2023-03-01T11:11:19;98162.19;;;5.73;50.48
28267;BME280;15525;45.568;5.448;2023-03-01T11:16:42;98158.31;;;6.04;49.52
28267;BME280;15525;45.568;5.448;2023-03-01T11:24:46;98136.88;;;7.21;47.56
28267;BME280;15525;45.568;5.448;2023-03-01T11:29:54;98128.09;;;7.42;47.36
28267;BME280;15525;45.568;5.448;2023-03-01T11:32:24;98133.69;;;7.24;47.33
28267;BME280;15525;45.568;5.448;2023-03-01T11:34:57;98117.53;;;7.09;47.22
28267;BME280;15525;45.568;5.448;2023-03-01T11:37:38;98119.84;;;7.22;47.79
28267;BME280;15525;45.568;5.448;2023-03-01T11:40:22;98115.28;;;7.01;48.10
28267;BME280;15525;45.568;5.448;2023-03-01T11:45:56;98113.09;;;7.79;46.83
28267;BME280;15525;45.568;5.448;2023-03-01T11:51:09;98107.78;;;7.79;46.33
28267;BME280;15525;45.568;5.448;2023-03-01T11:56:32;98096.84;;;6.28;48.82
28267;BME280;15525;45.568;5.448;2023-03-01T12:02:14;98099.50;;;6.78;48.61
28267;BME280;15525;45.568;5.448;2023-03-01T12:04:54;98089.69;;;7.38;46.96
28267;BME280;15525;45.568;5.448;2023-03-01T12:15:39;98058.78;;;8.06;45.58
28267;BME280;15525;45.568;5.448;2023-03-01T12:29:07;98065.25;;;8.15;46.03
28267;BME280;15525;45.568;5.448;2023-03-01T12:47:22;98057.31;;;8.52;45.40
28267;BME280;15525;45.568;5.448;2023-03-01T12:49:59;98044.97;;;8.41;45.86
28267;BME280;15525;45.568;5.448;2023-03-01T12:52:35;98054.47;;;8.63;45.70
28267;BME280;15525;45.568;5.448;2023-03-01T12:55:08;98042.13;;;8.52;45.11
28267;BME280;15525;45.568;5.448;2023-03-01T12:57:39;98048.56;;;8.56;45.87
28267;BME280;15525;45.568;5.448;2023-03-01T13:00:28;98041.75;;;8.39;45.39
28267;BME280;15525;45.568;5.448;2023-03-01T13:06:20;98025.47;;;7.56;47.07
28267;BME280;15525;45.568;5.448;2023-03-01T13:08:57;98028.72;;;7.84;46.38
28267;BME280;15525;45.568;5.448;2023-03-01T13:11:25;98035.25;;;7.98;46.68
28267;BME280;15525;45.568;5.448;2023-03-01T13:13:51;98033.41;;;7.99;46.47
28267;BME280;15525;45.568;5.448;2023-03-01T13:19:13;98032.88;;;8.65;45.16
28267;BME280;15525;45.568;5.448;2023-03-01T13:21:41;98025.13;;;8.27;45.90
28267;BME280;15525;45.568;5.448;2023-03-01T13:24:28;98030.06;;;8.45;45.05
28267;BME280;15525;45.568;5.448;2023-03-01T13:29:50;98031.31;;;7.10;47.60
28267;BME280;15525;45.568;5.448;2023-03-01T13:32:29;98012.13;;;7.29;47.11
28267;BME280;15525;45.568;5.448;2023-03-01T13:37:46;98030.06;;;8.45;45.61
28267;BME280;15525;45.568;5.448;2023-03-01T13:42:52;98018.03;;;8.11;46.42
28267;BME280;15525;45.568;5.448;2023-03-01T13:48:01;98002.97;;;7.95;46.22
28267;BME280;15525;45.568;5.448;2023-03-01T13:50:29;98002.78;;;8.33;45.69
28267;BME280;15525;45.568;5.448;2023-03-01T13:53:02;98004.16;;;8.09;45.67
28267;BME280;15525;45.568;5.448;2023-03-01T13:55:36;98013.84;;;7.62;46.99
28267;BME280;15525;45.568;5.448;2023-03-01T13:58:16;98011.38;;;7.82;46.16
28267;BME280;15525;45.568;5.448;2023-03-01T14:00:43;98004.78;;;7.63;46.47
28267;BME280;15525;45.568;5.448;2023-03-01T14:03:17;98005.03;;;7.88;46.31
28267;BME280;15525;45.568;5.448;2023-03-01T14:05:59;97998.84;;;8.40;45.53
28267;BME280;15525;45.568;5.448;2023-03-01T14:08:27;97992.25;;;8.53;45.34
28267;BME280;15525;45.568;5.448;2023-03-01T14:17:49;98001.25;;;7.84;46.87
28267;BME280;15525;45.568;5.448;2023-03-01T14:19:55;98008.03;;;8.23;46.21
28267;BME280;15525;45.568;5.448;2023-03-01T14:22:23;98001.94;;;8.64;45.66
28267;BME280;15525;45.568;5.448;2023-03-01T14:24:53;97990.84;;;8.45;45.65
28267;BME280;15525;45.568;5.448;2023-03-01T14:27:19;97976.50;;;8.46;45.70
28267;BME280;15525;45.568;5.448;2023-03-01T14:29:55;97991.97;;;8.18;46.13
28267;BME280;15525;45.568;5.448;2023-03-01T14:32:25;97988.81;;;8.21;46.14
28267;BME280;15525;45.568;5.448;2023-03-01T14:34:51;97975.78;;;8.66;45.52
28267;BME280;15525;45.568;5.448;2023-03-01T14:39:53;97976.84;;;8.60;45.76
28267;BME280;15525;45.568;5.448;2023-03-01T14:42:20;97964.53;;;8.54;45.29
28267;BME280;15525;45.568;5.448;2023-03-01T14:44:49;97982.50;;;8.32;45.77
28267;BME280;15525;45.568;5.448;2023-03-01T14:47:26;97989.28;;;7.86;46.67
28267;BME280;15525;45.568;5.448;2023-03-01T14:49:57;97988.06;;;8.25;46.24
28267;BME280;15525;45.568;5.448;2023-03-01T14:52:30;97998.75;;;8.67;45.63
28267;BME280;15525;45.568;5.448;2023-03-01T14:54:59;97994.78;;;8.01;46.28
28267;BME280;15525;45.568;5.448;2023-03-01T14:57:26;97985.19;;;7.74;47.19
28267;BME280;15525;45.568;5.448;2023-03-01T14:59:53;97975.38;;;8.11;46.46
28267;BME280;15525;45.568;5.448;2023-03-01T15:02:22;97987.19;;;8.20;46.42
28267;BME280;15525;45.568;5.448;2023-03-01T15:05:00;97979.34;;;8.35;46.08
28267;BME280;15525;45.568;5.448;2023-03-01T15:07:30;97981.13;;;7.98;46.92
28267;BME280;15525;45.568;5.448;2023-03-01T15:09:57;97988.59;;;7.96;46.85
28267;BME280;15525;45.568;5.448;2023-03-01T15:14:56;98000.25;;;8.53;45.81